PWSweather.com
Personal Weather Stations
Station Observations
KTXROWLE6
Ravens Nest, Rowlett, TX 75089

Ravens NestRowlett, TX 75089

Lat: 32.93105, Lon: -96.57368

Elevation: 556

Station Type: Davis Vantage Pro2 6152

http://rowlett.ws

Latest ConditionsUpdated 2:45:00 AM CDT Thursday, Jul 18, 2019
Currently Today's Max Today's Min Today's Average
Temperature 81.6°F27.6°C 84.8°F29.3°C 81.6°F27.6°C 83.1°F28.4°C
Dew Point 70.8°F21.6°C 71.2°F21.8°C 70.1°F21.2°C 70.8°F21.6°C
Winds 3.6 mph SW5.8 kmh SW 5.4 mph -8.7 kmh - - 4.0 mph 6.4 kmh
Wind Gusts 7.0 mph11.3 kmh 11.0 mph17.7 kmh - -
Humidity 70% 70% 62% 67%
Pressure 29.97 in1014.9 mb 29.97 in1014.9 mb 29.95 in1014.2 mb -
Hour Temp Dew Point Humidity Winds Wind Gusts Pressure Precip Precip Rate Daily Precip Total
02:45 AM 81.6°F27.6°C 70.8°F21.6°C 70% 3.6 mph SW5.8 kmh SW 7.0 mph11.3 kmh 29.97 in1014.9 mb 0.00 in0.0 mm 0.00 in0.0 mm 0.00 in0.0 mm
02:40 AM 81.6°F27.6°C 70.8°F21.6°C 70% 2.9 mph SW4.7 kmh SW 9.0 mph14.5 kmh 29.96 in1014.6 mb 0.00 in0.0 mm 0.00 in0.0 mm 0.00 in0.0 mm
02:35 AM 81.7°F27.6°C 70.9°F21.6°C 70% 4.2 mph SW6.8 kmh SW 9.0 mph14.5 kmh 29.97 in1014.9 mb 0.00 in0.0 mm 0.00 in0.0 mm 0.00 in0.0 mm
02:30 AM 81.8°F27.7°C 71.0°F21.7°C 70% 3.8 mph SW6.1 kmh SW 9.0 mph14.5 kmh 29.97 in1014.9 mb 0.00 in0.0 mm 0.00 in0.0 mm 0.00 in0.0 mm
02:25 AM 81.9°F27.7°C 71.1°F21.7°C 70% 2.8 mph SSW4.5 kmh SSW 8.0 mph12.9 kmh 29.97 in1014.9 mb 0.00 in0.0 mm 0.00 in0.0 mm 0.00 in0.0 mm
02:20 AM 82.0°F27.8°C 71.2°F21.8°C 70% 3.4 mph SW5.5 kmh SW 8.0 mph12.9 kmh 29.97 in1014.9 mb 0.00 in0.0 mm 0.00 in0.0 mm 0.00 in0.0 mm
02:10 AM 82.1°F27.8°C 70.9°F21.6°C 69% 3.1 mph SW5.0 kmh SW 8.0 mph12.9 kmh 29.97 in1014.9 mb 0.00 in0.0 mm 0.00 in0.0 mm 0.00 in0.0 mm
02:05 AM 82.1°F27.8°C 70.9°F21.6°C 69% 3.1 mph SW5.0 kmh SW 9.0 mph14.5 kmh 29.97 in1014.9 mb 0.00 in0.0 mm 0.00 in0.0 mm 0.00 in0.0 mm
01:55 AM 82.3°F27.9°C 71.1°F21.7°C 69% 3.5 mph SW5.6 kmh SW 9.0 mph14.5 kmh 29.97 in1014.9 mb 0.00 in0.0 mm 0.00 in0.0 mm 0.00 in0.0 mm
01:50 AM 82.4°F28.0°C 71.2°F21.8°C 69% 4.5 mph SW7.2 kmh SW 9.0 mph14.5 kmh 29.97 in1014.9 mb 0.00 in0.0 mm 0.00 in0.0 mm 0.00 in0.0 mm
01:45 AM 82.5°F28.1°C 70.8°F21.6°C 68% 3.5 mph SW5.6 kmh SW 7.0 mph11.3 kmh 29.97 in1014.9 mb 0.00 in0.0 mm 0.00 in0.0 mm 0.00 in0.0 mm
01:40 AM 82.5°F28.1°C 70.8°F21.6°C 68% 3.1 mph SW5.0 kmh SW 7.0 mph11.3 kmh 29.97 in1014.9 mb 0.00 in0.0 mm 0.00 in0.0 mm 0.00 in0.0 mm
01:35 AM 82.6°F28.1°C 70.9°F21.6°C 68% 3.4 mph SW5.5 kmh SW 9.0 mph14.5 kmh 29.97 in1014.9 mb 0.00 in0.0 mm 0.00 in0.0 mm 0.00 in0.0 mm
01:30 AM 82.7°F28.2°C 71.0°F21.7°C 68% 4.1 mph SW6.6 kmh SW 10.0 mph16.1 kmh 29.97 in1014.9 mb 0.00 in0.0 mm 0.00 in0.0 mm 0.00 in0.0 mm
01:25 AM 82.8°F28.2°C 71.1°F21.7°C 68% 4.7 mph SW7.6 kmh SW 10.0 mph16.1 kmh 29.97 in1014.9 mb 0.00 in0.0 mm 0.00 in0.0 mm 0.00 in0.0 mm
01:20 AM 83.0°F28.3°C 70.9°F21.6°C 67% 4.3 mph SW6.9 kmh SW 8.0 mph12.9 kmh 29.97 in1014.9 mb 0.00 in0.0 mm 0.00 in0.0 mm 0.00 in0.0 mm
01:15 AM 83.1°F28.4°C 71.0°F21.7°C 67% 4.1 mph SW6.6 kmh SW 9.0 mph14.5 kmh 29.96 in1014.6 mb 0.00 in0.0 mm 0.00 in0.0 mm 0.00 in0.0 mm
01:10 AM 83.3°F28.5°C 71.2°F21.8°C 67% 4.2 mph SW6.8 kmh SW 10.0 mph16.1 kmh 29.97 in1014.9 mb 0.00 in0.0 mm 0.00 in0.0 mm 0.00 in0.0 mm
01:05 AM 83.3°F28.5°C 70.7°F21.5°C 66% 5.0 mph SW8.0 kmh SW 10.0 mph16.1 kmh 29.97 in1014.9 mb 0.00 in0.0 mm 0.00 in0.0 mm 0.00 in0.0 mm
01:00 AM 83.4°F28.6°C 70.8°F21.6°C 66% 4.6 mph SW7.4 kmh SW 9.0 mph14.5 kmh 29.97 in1014.9 mb 0.00 in0.0 mm 0.00 in0.0 mm 0.00 in0.0 mm
12:55 AM 83.5°F28.6°C 70.9°F21.6°C 66% 4.1 mph SW6.6 kmh SW 11.0 mph17.7 kmh 29.96 in1014.6 mb 0.00 in0.0 mm 0.00 in0.0 mm 0.00 in0.0 mm
12:50 AM 83.6°F28.7°C 70.6°F21.4°C 65% 3.9 mph SW6.3 kmh SW 11.0 mph17.7 kmh 29.96 in1014.6 mb 0.00 in0.0 mm 0.00 in0.0 mm 0.00 in0.0 mm
12:45 AM 83.8°F28.8°C 70.8°F21.6°C 65% 4.9 mph SW7.9 kmh SW 11.0 mph17.7 kmh 29.96 in1014.6 mb 0.00 in0.0 mm 0.00 in0.0 mm 0.00 in0.0 mm
12:40 AM 83.9°F28.8°C 70.8°F21.6°C 65% 4.0 mph SW6.4 kmh SW 11.0 mph17.7 kmh 29.96 in1014.6 mb 0.00 in0.0 mm 0.00 in0.0 mm 0.00 in0.0 mm
12:35 AM 84.0°F28.9°C 70.5°F21.4°C 64% 5.4 mph SW8.7 kmh SW 10.0 mph16.1 kmh 29.96 in1014.6 mb 0.00 in0.0 mm 0.00 in0.0 mm 0.00 in0.0 mm
12:30 AM 84.0°F28.9°C 70.5°F21.4°C 64% 3.6 mph SW5.8 kmh SW 8.0 mph12.9 kmh 29.96 in1014.6 mb 0.00 in0.0 mm 0.00 in0.0 mm 0.00 in0.0 mm
12:25 AM 84.2°F29.0°C 70.7°F21.5°C 64% 3.6 mph SW5.8 kmh SW 10.0 mph16.1 kmh 29.96 in1014.6 mb 0.00 in0.0 mm 0.00 in0.0 mm 0.00 in0.0 mm
12:20 AM 84.4°F29.1°C 70.4°F21.3°C 63% 5.2 mph SW8.4 kmh SW 10.0 mph16.1 kmh 29.96 in1014.6 mb 0.00 in0.0 mm 0.00 in0.0 mm 0.00 in0.0 mm
12:15 AM 84.5°F29.2°C 70.5°F21.4°C 63% 4.0 mph SW6.4 kmh SW 8.0 mph12.9 kmh 29.96 in1014.6 mb 0.00 in0.0 mm 0.00 in0.0 mm 0.00 in0.0 mm
12:10 AM 84.5°F29.2°C 70.5°F21.4°C 63% 4.3 mph SW6.9 kmh SW 8.0 mph12.9 kmh 29.96 in1014.6 mb 0.00 in0.0 mm 0.00 in0.0 mm 0.00 in0.0 mm
12:05 AM 84.6°F29.2°C 70.1°F21.2°C 62% 4.1 mph SW6.6 kmh SW 9.0 mph14.5 kmh 29.96 in1014.6 mb 0.00 in0.0 mm 0.00 in0.0 mm 0.00 in0.0 mm
12:00 AM 84.8°F29.3°C 70.3°F21.3°C 62% 4.4 mph SW7.1 kmh SW 9.0 mph14.5 kmh 29.95 in1014.2 mb 0.00 in0.0 mm 0.00 in0.0 mm 0.00 in0.0 mm